sensor_id;sensor_type;location;lat;lon;timestamp;temperature;humidity
18103;DHT22;9178;51.120;6.192;2023-07-09T00:01:13;21.60;99.90
18103;DHT22;9178;51.120;6.192;2023-07-09T00:03:42;21.60;99.90
18103;DHT22;9178;51.120;6.192;2023-07-09T00:06:09;21.60;99.90
18103;DHT22;9178;51.120;6.192;2023-07-09T00:08:40;21.60;99.90
18103;DHT22;9178;51.120;6.192;2023-07-09T00:11:09;21.60;99.90
18103;DHT22;9178;51.120;6.192;2023-07-09T00:13:38;21.60;99.90
18103;DHT22;9178;51.120;6.192;2023-07-09T00:16:11;21.50;99.90
18103;DHT22;9178;51.120;6.192;2023-07-09T00:18:39;21.50;99.90
18103;DHT22;9178;51.120;6.192;2023-07-09T00:21:06;21.50;99.90
18103;DHT22;9178;51.120;6.192;2023-07-09T00:23:33;21.50;99.90
18103;DHT22;9178;51.120;6.192;2023-07-09T00:26:00;21.50;99.90
18103;DHT22;9178;51.120;6.192;2023-07-09T00:28:28;21.50;99.90
18103;DHT22;9178;51.120;6.192;2023-07-09T00:30:57;21.50;99.90
18103;DHT22;9178;51.120;6.192;2023-07-09T00:33:24;21.40;99.90
18103;DHT22;9178;51.120;6.192;2023-07-09T00:35:57;21.40;99.90
18103;DHT22;9178;51.120;6.192;2023-07-09T00:38:24;21.40;99.90
18103;DHT22;9178;51.120;6.192;2023-07-09T00:41:01;21.30;99.90
18103;DHT22;9178;51.120;6.192;2023-07-09T00:43:33;21.30;99.90
18103;DHT22;9178;51.120;6.192;2023-07-09T00:49:01;21.20;99.90
18103;DHT22;9178;51.120;6.192;2023-07-09T00:51:31;21.20;99.90
18103;DHT22;9178;51.120;6.192;2023-07-09T00:54:09;21.10;99.90
18103;DHT22;9178;51.120;6.192;2023-07-09T00:56:43;21.10;99.90
18103;DHT22;9178;51.120;6.192;2023-07-09T00:59:14;21.10;99.90
18103;DHT22;9178;51.120;6.192;2023-07-09T01:01:43;21.00;99.90
18103;DHT22;9178;51.120;6.192;2023-07-09T01:04:13;21.00;99.90
18103;DHT22;9178;51.120;6.192;2023-07-09T01:06:45;21.00;99.90
18103;DHT22;9178;51.120;6.192;2023-07-09T01:09:15;21.00;99.90
18103;DHT22;9178;51.120;6.192;2023-07-09T01:11:42;20.90;99.90
18103;DHT22;9178;51.120;6.192;2023-07-09T01:14:12;20.90;99.90
18103;DHT22;9178;51.120;6.192;2023-07-09T01:16:46;20.90;99.90
18103;DHT22;9178;51.120;6.192;2023-07-09T01:19:14;20.80;99.90
18103;DHT22;9178;51.120;6.192;2023-07-09T01:21:43;20.80;99.90
18103;DHT22;9178;51.120;6.192;2023-07-09T01:24:13;20.80;99.90
18103;DHT22;9178;51.120;6.192;2023-07-09T01:26:41;20.70;99.90
18103;DHT22;9178;51.120;6.192;2023-07-09T01:29:09;20.70;99.90
18103;DHT22;9178;51.120;6.192;2023-07-09T01:31:37;20.60;99.90
18103;DHT22;9178;51.120;6.192;2023-07-09T01:34:06;20.60;99.90
18103;DHT22;9178;51.120;6.192;2023-07-09T01:36:33;20.60;99.90
18103;DHT22;9178;51.120;6.192;2023-07-09T01:39:02;20.60;99.90
18103;DHT22;9178;51.120;6.192;2023-07-09T01:41:29;20.60;99.90
18103;DHT22;9178;51.120;6.192;2023-07-09T01:44:00;20.60;99.90
18103;DHT22;9178;51.120;6.192;2023-07-09T01:46:26;20.50;99.90
18103;DHT22;9178;51.120;6.192;2023-07-09T01:48:53;20.50;99.90
18103;DHT22;9178;51.120;6.192;2023-07-09T01:51:21;20.50;99.90
18103;DHT22;9178;51.120;6.192;2023-07-09T01:53:50;20.40;99.90
18103;DHT22;9178;51.120;6.192;2023-07-09T01:56:18;20.30;99.90
18103;DHT22;9178;51.120;6.192;2023-07-09T01:58:45;20.40;99.90
18103;DHT22;9178;51.120;6.192;2023-07-09T02:01:13;20.30;99.90
18103;DHT22;9178;51.120;6.192;2023-07-09T02:03:40;20.30;99.90
18103;DHT22;9178;51.120;6.192;2023-07-09T02:06:07;20.20;99.90
18103;DHT22;9178;51.120;6.192;2023-07-09T02:08:36;20.20;99.90
18103;DHT22;9178;51.120;6.192;2023-07-09T02:11:03;20.20;99.90
18103;DHT22;9178;51.120;6.192;2023-07-09T02:13:34;20.20;99.90
18103;DHT22;9178;51.120;6.192;2023-07-09T02:16:01;20.20;99.90
18103;DHT22;9178;51.120;6.192;2023-07-09T02:18:29;20.20;99.90
18103;DHT22;9178;51.120;6.192;2023-07-09T02:20:56;20.20;99.90
18103;DHT22;9178;51.120;6.192;2023-07-09T02:23:26;20.10;99.90
18103;DHT22;9178;51.120;6.192;2023-07-09T02:25:53;20.10;99.90
18103;DHT22;9178;51.120;6.192;2023-07-09T02:28:20;20.20;99.90
18103;DHT22;9178;51.120;6.192;2023-07-09T02:30:49;20.10;99.90
18103;DHT22;9178;51.120;6.192;2023-07-09T02:33:19;20.10;99.90
18103;DHT22;9178;51.120;6.192;2023-07-09T02:35:46;20.10;99.90
18103;DHT22;9178;51.120;6.192;2023-07-09T02:38:13;20.10;99.90
18103;DHT22;9178;51.120;6.192;2023-07-09T02:40:40;20.10;99.90
18103;DHT22;9178;51.120;6.192;2023-07-09T02:43:06;20.10;99.90
18103;DHT22;9178;51.120;6.192;2023-07-09T02:45:34;20.10;99.90
18103;DHT22;9178;51.120;6.192;2023-07-09T02:48:04;20.10;99.90
18103;DHT22;9178;51.120;6.192;2023-07-09T02:50:31;20.10;99.90
18103;DHT22;9178;51.120;6.192;2023-07-09T02:52:58;20.00;99.90
18103;DHT22;9178;51.120;6.192;2023-07-09T02:55:25;20.00;99.90
18103;DHT22;9178;51.120;6.192;2023-07-09T02:57:52;20.00;99.90
18103;DHT22;9178;51.120;6.192;2023-07-09T03:00:22;20.00;99.90
18103;DHT22;9178;51.120;6.192;2023-07-09T03:02:49;20.00;99.90
18103;DHT22;9178;51.120;6.192;2023-07-09T03:05:18;20.00;99.90
18103;DHT22;9178;51.120;6.192;2023-07-09T03:07:45;19.90;99.90
18103;DHT22;9178;51.120;6.192;2023-07-09T03:10:12;19.90;99.90
18103;DHT22;9178;51.120;6.192;2023-07-09T03:12:39;19.90;99.90
18103;DHT22;9178;51.120;6.192;2023-07-09T03:15:06;19.90;99.90
18103;DHT22;9178;51.120;6.192;2023-07-09T03:17:33;19.80;99.90
18103;DHT22;9178;51.120;6.192;2023-07-09T03:20:00;19.80;99.90
18103;DHT22;9178;51.120;6.192;2023-07-09T03:22:29;19.80;99.90
18103;DHT22;9178;51.120;6.192;2023-07-09T03:24:56;19.80;99.90
18103;DHT22;9178;51.120;6.192;2023-07-09T03:27:23;19.80;99.90
18103;DHT22;9178;51.120;6.192;2023-07-09T03:29:51;19.80;99.90
18103;DHT22;9178;51.120;6.192;2023-07-09T03:32:18;19.80;99.90
18103;DHT22;9178;51.120;6.192;2023-07-09T03:34:44;19.80;99.90
18103;DHT22;9178;51.120;6.192;2023-07-09T03:37:12;19.80;99.90
18103;DHT22;9178;51.120;6.192;2023-07-09T03:39:40;19.80;99.90
18103;DHT22;9178;51.120;6.192;2023-07-09T03:42:07;19.70;99.90
18103;DHT22;9178;51.120;6.192;2023-07-09T03:44:35;19.70;99.90
18103;DHT22;9178;51.120;6.192;2023-07-09T03:47:04;19.60;99.90
18103;DHT22;9178;51.120;6.192;2023-07-09T03:49:31;19.60;99.90
18103;DHT22;9178;51.120;6.192;2023-07-09T03:51:59;19.60;99.90
18103;DHT22;9178;51.120;6.192;2023-07-09T03:54:25;19.60;99.90
18103;DHT22;9178;51.120;6.192;2023-07-09T03:56:54;19.60;99.90
18103;DHT22;9178;51.120;6.192;2023-07-09T03:59:21;19.70;99.90
18103;DHT22;9178;51.120;6.192;2023-07-09T04:01:48;19.70;99.90
18103;DHT22;9178;51.120;6.192;2023-07-09T04:04:15;19.70;99.90
18103;DHT22;9178;51.120;6.192;2023-07-09T04:06:45;19.80;99.90
18103;DHT22;9178;51.120;6.192;2023-07-09T04:09:12;19.80;99.90
18103;DHT22;9178;51.120;6.192;2023-07-09T04:11:39;19.80;99.90
18103;DHT22;9178;51.120;6.192;2023-07-09T04:14:08;19.80;99.90
18103;DHT22;9178;51.120;6.192;2023-07-09T04:16:34;19.90;99.90
18103;DHT22;9178;51.120;6.192;2023-07-09T04:19:01;19.90;99.90
18103;DHT22;9178;51.120;6.192;2023-07-09T04:21:29;20.00;99.90
18103;DHT22;9178;51.120;6.192;2023-07-09T04:23:56;20.00;99.90
18103;DHT22;9178;51.120;6.192;2023-07-09T04:26:23;20.10;99.90
18103;DHT22;9178;51.120;6.192;2023-07-09T04:28:49;20.10;99.90
18103;DHT22;9178;51.120;6.192;2023-07-09T04:31:18;20.20;99.90
18103;DHT22;9178;51.120;6.192;2023-07-09T04:33:45;20.20;99.90
18103;DHT22;9178;51.120;6.192;2023-07-09T04:36:14;20.20;99.90
18103;DHT22;9178;51.120;6.192;2023-07-09T04:38:40;20.30;99.90
18103;DHT22;9178;51.120;6.192;2023-07-09T04:41:07;20.30;99.90
18103;DHT22;9178;51.120;6.192;2023-07-09T04:43:34;20.40;99.90
18103;DHT22;9178;51.120;6.192;2023-07-09T04:46:01;20.50;99.90
18103;DHT22;9178;51.120;6.192;2023-07-09T04:48:30;20.50;99.90
18103;DHT22;9178;51.120;6.192;2023-07-09T04:50:57;20.60;99.90
18103;DHT22;9178;51.120;6.192;2023-07-09T04:53:25;20.70;99.90
18103;DHT22;9178;51.120;6.192;2023-07-09T04:55:52;20.70;99.90
18103;DHT22;9178;51.120;6.192;2023-07-09T04:58:19;20.80;99.90
18103;DHT22;9178;51.120;6.192;2023-07-09T05:00:46;20.80;99.90
18103;DHT22;9178;51.120;6.192;2023-07-09T05:03:14;20.80;99.90
18103;DHT22;9178;51.120;6.192;2023-07-09T05:05:44;20.90;99.90
18103;DHT22;9178;51.120;6.192;2023-07-09T05:08:11;21.00;99.90
18103;DHT22;9178;51.120;6.192;2023-07-09T05:10:41;21.00;99.90
18103;DHT22;9178;51.120;6.192;2023-07-09T05:13:08;21.10;99.90
18103;DHT22;9178;51.120;6.192;2023-07-09T05:15:35;21.20;99.90
18103;DHT22;9178;51.120;6.192;2023-07-09T05:18:02;21.20;99.90
18103;DHT22;9178;51.120;6.192;2023-07-09T05:20:29;21.30;99.90
18103;DHT22;9178;51.120;6.192;2023-07-09T05:22:57;21.30;99.90
18103;DHT22;9178;51.120;6.192;2023-07-09T05:25:24;21.30;99.90
18103;DHT22;9178;51.120;6.192;2023-07-09T05:27:51;21.40;99.90
18103;DHT22;9178;51.120;6.192;2023-07-09T05:30:18;21.50;99.90
18103;DHT22;9178;51.120;6.192;2023-07-09T05:32:45;21.60;99.90
18103;DHT22;9178;51.120;6.192;2023-07-09T05:35:13;21.70;99.90
18103;DHT22;9178;51.120;6.192;2023-07-09T05:37:40;21.80;99.90
18103;DHT22;9178;51.120;6.192;2023-07-09T05:40:08;21.80;99.90
18103;DHT22;9178;51.120;6.192;2023-07-09T05:42:36;21.90;99.90
18103;DHT22;9178;51.120;6.192;2023-07-09T05:45:03;22.00;99.90
18103;DHT22;9178;51.120;6.192;2023-07-09T05:47:36;22.10;99.90
18103;DHT22;9178;51.120;6.192;2023-07-09T05:50:04;22.20;99.90
18103;DHT22;9178;51.120;6.192;2023-07-09T05:52:31;22.20;99.90
18103;DHT22;9178;51.120;6.192;2023-07-09T05:54:58;22.30;99.90
18103;DHT22;9178;51.120;6.192;2023-07-09T05:57:27;22.30;99.90
18103;DHT22;9178;51.120;6.192;2023-07-09T05:59:54;22.40;99.90
18103;DHT22;9178;51.120;6.192;2023-07-09T06:02:21;22.40;99.90
18103;DHT22;9178;51.120;6.192;2023-07-09T06:04:48;22.50;99.90
18103;DHT22;9178;51.120;6.192;2023-07-09T06:07:16;22.60;99.90
18103;DHT22;9178;51.120;6.192;2023-07-09T06:09:44;22.70;99.90
18103;DHT22;9178;51.120;6.192;2023-07-09T06:12:12;22.80;99.90
18103;DHT22;9178;51.120;6.192;2023-07-09T06:14:40;22.80;99.90
18103;DHT22;9178;51.120;6.192;2023-07-09T06:17:07;22.90;99.90
18103;DHT22;9178;51.120;6.192;2023-07-09T06:19:34;23.00;99.90
18103;DHT22;9178;51.120;6.192;2023-07-09T06:22:01;23.20;99.90
18103;DHT22;9178;51.120;6.192;2023-07-09T06:24:28;23.30;99.90
18103;DHT22;9178;51.120;6.192;2023-07-09T06:26:55;23.40;99.90
18103;DHT22;9178;51.120;6.192;2023-07-09T06:29:24;23.50;99.90
18103;DHT22;9178;51.120;6.192;2023-07-09T06:31:53;23.60;99.90
18103;DHT22;9178;51.120;6.192;2023-07-09T06:34:20;23.70;99.90
18103;DHT22;9178;51.120;6.192;2023-07-09T06:36:47;23.90;99.90
18103;DHT22;9178;51.120;6.192;2023-07-09T06:39:14;24.00;99.90
18103;DHT22;9178;51.120;6.192;2023-07-09T06:41:41;24.10;99.90
18103;DHT22;9178;51.120;6.192;2023-07-09T06:44:09;24.30;99.90
18103;DHT22;9178;51.120;6.192;2023-07-09T06:46:36;24.40;99.90
18103;DHT22;9178;51.120;6.192;2023-07-09T06:49:04;24.50;99.90
18103;DHT22;9178;51.120;6.192;2023-07-09T06:51:32;24.60;99.90
18103;DHT22;9178;51.120;6.192;2023-07-09T06:53:59;24.80;99.90
18103;DHT22;9178;51.120;6.192;2023-07-09T06:56:26;24.90;99.90
18103;DHT22;9178;51.120;6.192;2023-07-09T06:58:53;25.10;99.90
18103;DHT22;9178;51.120;6.192;2023-07-09T07:01:21;25.20;99.90
18103;DHT22;9178;51.120;6.192;2023-07-09T07:03:48;25.30;99.90
18103;DHT22;9178;51.120;6.192;2023-07-09T07:06:17;25.40;99.90
18103;DHT22;9178;51.120;6.192;2023-07-09T07:08:43;25.50;99.90
18103;DHT22;9178;51.120;6.192;2023-07-09T07:11:10;25.70;99.90
18103;DHT22;9178;51.120;6.192;2023-07-09T07:13:39;25.80;99.90
18103;DHT22;9178;51.120;6.192;2023-07-09T07:16:08;26.00;99.90
18103;DHT22;9178;51.120;6.192;2023-07-09T07:18:36;26.20;99.90
18103;DHT22;9178;51.120;6.192;2023-07-09T07:21:03;26.40;99.90
18103;DHT22;9178;51.120;6.192;2023-07-09T07:23:33;26.70;99.90
18103;DHT22;9178;51.120;6.192;2023-07-09T07:26:00;27.00;99.90
18103;DHT22;9178;51.120;6.192;2023-07-09T07:28:27;27.20;99.90
18103;DHT22;9178;51.120;6.192;2023-07-09T07:31:00;27.40;99.90
18103;DHT22;9178;51.120;6.192;2023-07-09T07:33:27;27.70;99.90
18103;DHT22;9178;51.120;6.192;2023-07-09T07:35:54;27.90;99.90
18103;DHT22;9178;51.120;6.192;2023-07-09T07:38:21;28.20;99.90
18103;DHT22;9178;51.120;6.192;2023-07-09T07:40:50;28.40;99.90
18103;DHT22;9178;51.120;6.192;2023-07-09T07:43:17;28.60;99.90
18103;DHT22;9178;51.120;6.192;2023-07-09T07:45:44;28.80;99.90
18103;DHT22;9178;51.120;6.192;2023-07-09T07:48:11;29.10;99.90
18103;DHT22;9178;51.120;6.192;2023-07-09T07:50:37;29.40;99.90
18103;DHT22;9178;51.120;6.192;2023-07-09T07:53:04;29.60;99.90
18103;DHT22;9178;51.120;6.192;2023-07-09T07:55:33;29.90;99.90
18103;DHT22;9178;51.120;6.192;2023-07-09T07:58:03;30.20;99.90
18103;DHT22;9178;51.120;6.192;2023-07-09T08:00:30;30.50;99.90
18103;DHT22;9178;51.120;6.192;2023-07-09T08:02:57;30.70;99.90
18103;DHT22;9178;51.120;6.192;2023-07-09T08:05:24;30.90;99.90
18103;DHT22;9178;51.120;6.192;2023-07-09T08:07:51;31.20;99.90
18103;DHT22;9178;51.120;6.192;2023-07-09T08:10:18;31.30;99.90
18103;DHT22;9178;51.120;6.192;2023-07-09T08:12:45;31.40;99.90
18103;DHT22;9178;51.120;6.192;2023-07-09T08:15:14;31.60;99.90
18103;DHT22;9178;51.120;6.192;2023-07-09T08:17:48;31.90;99.90
18103;DHT22;9178;51.120;6.192;2023-07-09T08:20:15;32.20;99.90
18103;DHT22;9178;51.120;6.192;2023-07-09T08:22:43;32.50;99.90
18103;DHT22;9178;51.120;6.192;2023-07-09T08:25:10;32.60;99.90
18103;DHT22;9178;51.120;6.192;2023-07-09T08:27:37;32.80;99.90
18103;DHT22;9178;51.120;6.192;2023-07-09T08:30:05;32.80;99.90
18103;DHT22;9178;51.120;6.192;2023-07-09T08:32:33;32.90;99.90
18103;DHT22;9178;51.120;6.192;2023-07-09T08:35:00;33.20;99.90
18103;DHT22;9178;51.120;6.192;2023-07-09T08:37:27;33.50;99.90
18103;DHT22;9178;51.120;6.192;2023-07-09T08:39:54;33.60;99.90
18103;DHT22;9178;51.120;6.192;2023-07-09T08:42:29;33.80;99.40
18103;DHT22;9178;51.120;6.192;2023-07-09T08:45:13;33.90;99.90
18103;DHT22;9178;51.120;6.192;2023-07-09T08:47:52;34.20;99.90
18103;DHT22;9178;51.120;6.192;2023-07-09T08:50:26;34.30;99.90
18103;DHT22;9178;51.120;6.192;2023-07-09T08:52:56;34.60;99.80
18103;DHT22;9178;51.120;6.192;2023-07-09T08:55:27;34.80;97.10
18103;DHT22;9178;51.120;6.192;2023-07-09T08:57:57;34.90;93.90
18103;DHT22;9178;51.120;6.192;2023-07-09T09:00:29;35.00;95.40
18103;DHT22;9178;51.120;6.192;2023-07-09T09:03:01;35.10;92.70
18103;DHT22;9178;51.120;6.192;2023-07-09T09:05:31;35.30;90.60
18103;DHT22;9178;51.120;6.192;2023-07-09T09:08:04;35.60;91.10
18103;DHT22;9178;51.120;6.192;2023-07-09T09:10:36;35.90;90.00
18103;DHT22;9178;51.120;6.192;2023-07-09T09:13:09;35.90;90.10
18103;DHT22;9178;51.120;6.192;2023-07-09T09:15:39;35.90;84.70
18103;DHT22;9178;51.120;6.192;2023-07-09T09:18:21;35.80;88.40
18103;DHT22;9178;51.120;6.192;2023-07-09T09:20:53;36.00;87.90
18103;DHT22;9178;51.120;6.192;2023-07-09T09:23:22;36.40;83.00
18103;DHT22;9178;51.120;6.192;2023-07-09T09:25:53;36.90;81.60
18103;DHT22;9178;51.120;6.192;2023-07-09T09:28:22;36.70;74.40
18103;DHT22;9178;51.120;6.192;2023-07-09T09:30:51;36.40;77.00
18103;DHT22;9178;51.120;6.192;2023-07-09T09:33:19;36.30;81.70
18103;DHT22;9178;51.120;6.192;2023-07-09T09:35:46;36.70;81.60
18103;DHT22;9178;51.120;6.192;2023-07-09T09:38:17;37.20;81.70
18103;DHT22;9178;51.120;6.192;2023-07-09T09:40:59;37.30;74.00
18103;DHT22;9178;51.120;6.192;2023-07-09T09:43:32;37.50;71.90
18103;DHT22;9178;51.120;6.192;2023-07-09T09:46:00;37.50;74.70
18103;DHT22;9178;51.120;6.192;2023-07-09T09:48:31;37.40;81.50
18103;DHT22;9178;51.120;6.192;2023-07-09T09:50:59;37.80;79.80
18103;DHT22;9178;51.120;6.192;2023-07-09T09:53:36;38.10;76.90
18103;DHT22;9178;51.120;6.192;2023-07-09T09:56:05;38.40;80.60
18103;DHT22;9178;51.120;6.192;2023-07-09T09:58:35;38.60;74.50
18103;DHT22;9178;51.120;6.192;2023-07-09T10:01:11;38.90;71.20
18103;DHT22;9178;51.120;6.192;2023-07-09T10:03:41;39.10;74.20
18103;DHT22;9178;51.120;6.192;2023-07-09T10:06:14;39.20;70.70
18103;DHT22;9178;51.120;6.192;2023-07-09T10:08:52;39.60;65.90
18103;DHT22;9178;51.120;6.192;2023-07-09T10:11:28;39.70;59.80
18103;DHT22;9178;51.120;6.192;2023-07-09T10:14:01;39.80;66.50
18103;DHT22;9178;51.120;6.192;2023-07-09T10:16:34;40.20;57.90
18103;DHT22;9178;51.120;6.192;2023-07-09T10:19:12;40.30;56.20
18103;DHT22;9178;51.120;6.192;2023-07-09T10:21:46;40.40;56.00
18103;DHT22;9178;51.120;6.192;2023-07-09T10:24:36;40.70;56.70
18103;DHT22;9178;51.120;6.192;2023-07-09T10:27:09;40.90;56.40
18103;DHT22;9178;51.120;6.192;2023-07-09T10:29:51;41.30;59.50
18103;DHT22;9178;51.120;6.192;2023-07-09T10:32:27;41.70;57.30
18103;DHT22;9178;51.120;6.192;2023-07-09T10:35:05;42.00;54.30
18103;DHT22;9178;51.120;6.192;2023-07-09T10:37:58;41.90;54.90
18103;DHT22;9178;51.120;6.192;2023-07-09T10:40:31;42.00;55.60
18103;DHT22;9178;51.120;6.192;2023-07-09T10:43:01;42.30;53.80
18103;DHT22;9178;51.120;6.192;2023-07-09T10:45:31;42.60;54.30
18103;DHT22;9178;51.120;6.192;2023-07-09T10:48:04;42.90;53.30
18103;DHT22;9178;51.120;6.192;2023-07-09T10:50:36;43.00;53.70
18103;DHT22;9178;51.120;6.192;2023-07-09T10:53:09;42.90;54.40
18103;DHT22;9178;51.120;6.192;2023-07-09T10:55:43;42.70;52.20
18103;DHT22;9178;51.120;6.192;2023-07-09T10:58:24;42.50;52.50
18103;DHT22;9178;51.120;6.192;2023-07-09T11:00:53;42.60;50.30
18103;DHT22;9178;51.120;6.192;2023-07-09T11:03:26;42.70;52.50
18103;DHT22;9178;51.120;6.192;2023-07-09T11:05:59;42.70;51.70
18103;DHT22;9178;51.120;6.192;2023-07-09T11:08:31;42.70;52.40
18103;DHT22;9178;51.120;6.192;2023-07-09T11:11:03;42.50;53.30
18103;DHT22;9178;51.120;6.192;2023-07-09T11:13:37;42.00;48.50
18103;DHT22;9178;51.120;6.192;2023-07-09T11:16:06;41.60;50.30
18103;DHT22;9178;51.120;6.192;2023-07-09T11:18:35;41.60;51.20
18103;DHT22;9178;51.120;6.192;2023-07-09T11:21:07;41.70;52.40
18103;DHT22;9178;51.120;6.192;2023-07-09T11:23:43;41.50;52.00
18103;DHT22;9178;51.120;6.192;2023-07-09T11:26:12;41.50;52.60
18103;DHT22;9178;51.120;6.192;2023-07-09T11:28:45;41.50;52.80
18103;DHT22;9178;51.120;6.192;2023-07-09T11:31:20;41.20;55.30
18103;DHT22;9178;51.120;6.192;2023-07-09T11:33:56;41.00;54.30
18103;DHT22;9178;51.120;6.192;2023-07-09T11:36:28;40.90;54.90
18103;DHT22;9178;51.120;6.192;2023-07-09T11:38:56;40.70;56.70
18103;DHT22;9178;51.120;6.192;2023-07-09T11:41:28;40.60;54.20
18103;DHT22;9178;51.120;6.192;2023-07-09T11:44:05;40.60;54.50
18103;DHT22;9178;51.120;6.192;2023-07-09T11:46:43;40.40;53.40
18103;DHT22;9178;51.120;6.192;2023-07-09T11:49:12;40.20;55.20
18103;DHT22;9178;51.120;6.192;2023-07-09T11:51:45;40.10;53.80
18103;DHT22;9178;51.120;6.192;2023-07-09T11:54:15;40.00;53.10
18103;DHT22;9178;51.120;6.192;2023-07-09T11:56:57;40.00;53.20
18103;DHT22;9178;51.120;6.192;2023-07-09T11:59:24;39.70;54.70
18103;DHT22;9178;51.120;6.192;2023-07-09T12:01:52;39.30;51.90
18103;DHT22;9178;51.120;6.192;2023-07-09T12:04:23;39.30;56.40
18103;DHT22;9178;51.120;6.192;2023-07-09T12:06:57;39.40;55.60
18103;DHT22;9178;51.120;6.192;2023-07-09T12:09:31;39.70;54.10
18103;DHT22;9178;51.120;6.192;2023-07-09T12:11:59;40.10;54.10
18103;DHT22;9178;51.120;6.192;2023-07-09T12:14:26;40.40;52.70
18103;DHT22;9178;51.120;6.192;2023-07-09T12:16:57;40.50;52.00
18103;DHT22;9178;51.120;6.192;2023-07-09T12:19:24;40.50;52.90
18103;DHT22;9178;51.120;6.192;2023-07-09T12:21:58;40.50;52.10
18103;DHT22;9178;51.120;6.192;2023-07-09T12:24:26;40.50;53.20
18103;DHT22;9178;51.120;6.192;2023-07-09T12:26:53;40.50;52.30
18103;DHT22;9178;51.120;6.192;2023-07-09T12:29:24;40.40;52.60
18103;DHT22;9178;51.120;6.192;2023-07-09T12:31:52;39.90;52.30
18103;DHT22;9178;51.120;6.192;2023-07-09T12:34:19;39.60;50.60
18103;DHT22;9178;51.120;6.192;2023-07-09T12:36:48;39.30;55.90
18103;DHT22;9178;51.120;6.192;2023-07-09T12:39:23;38.90;52.40
18103;DHT22;9178;51.120;6.192;2023-07-09T12:41:55;38.70;53.00
18103;DHT22;9178;51.120;6.192;2023-07-09T12:44:23;38.50;53.80
18103;DHT22;9178;51.120;6.192;2023-07-09T12:46:52;38.20;53.80
18103;DHT22;9178;51.120;6.192;2023-07-09T12:49:24;37.90;53.60
18103;DHT22;9178;51.120;6.192;2023-07-09T12:51:53;37.60;54.80
18103;DHT22;9178;51.120;6.192;2023-07-09T12:54:23;37.30;55.30
18103;DHT22;9178;51.120;6.192;2023-07-09T12:56:51;37.00;55.50
18103;DHT22;9178;51.120;6.192;2023-07-09T12:59:20;36.60;55.80
18103;DHT22;9178;51.120;6.192;2023-07-09T13:01:49;36.30;57.70
18103;DHT22;9178;51.120;6.192;2023-07-09T13:04:17;36.00;54.90
18103;DHT22;9178;51.120;6.192;2023-07-09T13:06:45;35.70;57.20
18103;DHT22;9178;51.120;6.192;2023-07-09T13:09:18;35.40;57.20
18103;DHT22;9178;51.120;6.192;2023-07-09T13:11:48;35.20;60.40
18103;DHT22;9178;51.120;6.192;2023-07-09T13:14:20;34.90;62.30
18103;DHT22;9178;51.120;6.192;2023-07-09T13:16:48;34.60;67.40
18103;DHT22;9178;51.120;6.192;2023-07-09T13:19:15;34.40;70.00
18103;DHT22;9178;51.120;6.192;2023-07-09T13:21:43;33.90;75.80
18103;DHT22;9178;51.120;6.192;2023-07-09T13:24:16;33.10;87.80
18103;DHT22;9178;51.120;6.192;2023-07-09T13:26:44;32.10;94.30
18103;DHT22;9178;51.120;6.192;2023-07-09T13:29:15;30.70;99.90
18103;DHT22;9178;51.120;6.192;2023-07-09T13:31:43;29.70;99.90
18103;DHT22;9178;51.120;6.192;2023-07-09T13:34:18;29.10;99.90
18103;DHT22;9178;51.120;6.192;2023-07-09T13:36:52;28.60;99.90
18103;DHT22;9178;51.120;6.192;2023-07-09T13:39:27;28.10;99.90
18103;DHT22;9178;51.120;6.192;2023-07-09T13:41:57;27.60;99.90
18103;DHT22;9178;51.120;6.192;2023-07-09T13:44:29;27.30;99.90
18103;DHT22;9178;51.120;6.192;2023-07-09T13:46:56;26.80;99.90
18103;DHT22;9178;51.120;6.192;2023-07-09T13:49:26;26.40;99.90
18103;DHT22;9178;51.120;6.192;2023-07-09T13:51:58;26.00;99.90
18103;DHT22;9178;51.120;6.192;2023-07-09T13:54:28;25.90;99.90
18103;DHT22;9178;51.120;6.192;2023-07-09T13:57:00;25.70;99.90
18103;DHT22;9178;51.120;6.192;2023-07-09T13:59:30;25.50;99.90
18103;DHT22;9178;51.120;6.192;2023-07-09T14:01:58;25.40;99.90
18103;DHT22;9178;51.120;6.192;2023-07-09T14:04:30;25.40;99.90
18103;DHT22;9178;51.120;6.192;2023-07-09T14:06:57;25.30;99.90
18103;DHT22;9178;51.120;6.192;2023-07-09T14:09:24;25.00;99.90
18103;DHT22;9178;51.120;6.192;2023-07-09T14:11:52;24.70;99.90
18103;DHT22;9178;51.120;6.192;2023-07-09T14:14:21;24.50;99.90
18103;DHT22;9178;51.120;6.192;2023-07-09T14:16:51;24.30;99.90
18103;DHT22;9178;51.120;6.192;2023-07-09T14:19:20;24.10;99.90
18103;DHT22;9178;51.120;6.192;2023-07-09T14:21:48;24.00;99.90
18103;DHT22;9178;51.120;6.192;2023-07-09T14:24:21;23.90;99.90
18103;DHT22;9178;51.120;6.192;2023-07-09T14:26:52;23.80;99.90
18103;DHT22;9178;51.120;6.192;2023-07-09T14:29:21;23.70;99.90
18103;DHT22;9178;51.120;6.192;2023-07-09T14:31:49;23.60;99.90
18103;DHT22;9178;51.120;6.192;2023-07-09T14:34:20;23.60;99.90
18103;DHT22;9178;51.120;6.192;2023-07-09T14:36:48;23.60;99.90
18103;DHT22;9178;51.120;6.192;2023-07-09T14:39:15;23.50;99.90
18103;DHT22;9178;51.120;6.192;2023-07-09T14:41:43;23.50;99.90
18103;DHT22;9178;51.120;6.192;2023-07-09T14:44:22;23.40;99.90
18103;DHT22;9178;51.120;6.192;2023-07-09T14:46:53;23.30;99.90
18103;DHT22;9178;51.120;6.192;2023-07-09T14:49:21;23.20;99.90
18103;DHT22;9178;51.120;6.192;2023-07-09T14:51:49;23.10;99.90
18103;DHT22;9178;51.120;6.192;2023-07-09T14:54:19;22.90;99.90
18103;DHT22;9178;51.120;6.192;2023-07-09T14:56:46;22.80;99.90
18103;DHT22;9178;51.120;6.192;2023-07-09T14:59:14;22.80;99.90
18103;DHT22;9178;51.120;6.192;2023-07-09T15:01:41;22.80;99.90
18103;DHT22;9178;51.120;6.192;2023-07-09T15:04:26;22.80;99.90
18103;DHT22;9178;51.120;6.192;2023-07-09T15:06:55;22.90;99.90
18103;DHT22;9178;51.120;6.192;2023-07-09T15:09:23;22.80;99.90
18103;DHT22;9178;51.120;6.192;2023-07-09T15:11:52;22.90;99.90
18103;DHT22;9178;51.120;6.192;2023-07-09T15:14:20;22.90;99.90
18103;DHT22;9178;51.120;6.192;2023-07-09T15:16:48;22.90;99.90
18103;DHT22;9178;51.120;6.192;2023-07-09T15:19:19;23.00;99.90
18103;DHT22;9178;51.120;6.192;2023-07-09T15:21:47;23.20;99.90
18103;DHT22;9178;51.120;6.192;2023-07-09T15:24:18;23.30;99.90
18103;DHT22;9178;51.120;6.192;2023-07-09T15:26:49;23.40;99.90
18103;DHT22;9178;51.120;6.192;2023-07-09T15:29:18;23.50;99.90
18103;DHT22;9178;51.120;6.192;2023-07-09T15:31:46;23.60;99.90
18103;DHT22;9178;51.120;6.192;2023-07-09T15:34:12;23.60;99.90
18103;DHT22;9178;51.120;6.192;2023-07-09T15:36:43;23.70;99.90
18103;DHT22;9178;51.120;6.192;2023-07-09T15:39:11;23.80;99.90
18103;DHT22;9178;51.120;6.192;2023-07-09T15:41:38;23.90;99.90
18103;DHT22;9178;51.120;6.192;2023-07-09T15:44:10;24.00;99.90
18103;DHT22;9178;51.120;6.192;2023-07-09T15:46:39;24.10;99.90
18103;DHT22;9178;51.120;6.192;2023-07-09T15:49:07;24.20;99.90
18103;DHT22;9178;51.120;6.192;2023-07-09T15:51:37;24.30;99.90
18103;DHT22;9178;51.120;6.192;2023-07-09T15:54:11;24.40;99.90
18103;DHT22;9178;51.120;6.192;2023-07-09T15:56:39;24.50;99.90
18103;DHT22;9178;51.120;6.192;2023-07-09T15:59:09;24.80;99.90
18103;DHT22;9178;51.120;6.192;2023-07-09T16:01:40;25.00;99.90